Time;durP1;ratioP1;P1;durP2;ratioP2;P2;SDS_P1;SDS_P2;PMS_P1;PMS_P2;Temp;Humidity;BMP_temperature;BMP_pressure;BME280_temperature;BME280_humidity;BME280_pressure;Samples;Min_cycle;Max_cycle;Signal;HPM_P1;HPM_P2
2024/01/25 00:02:09;;;;;;;13.48;4.90;;;10.20;95.60;;;;;;6211059;23;20009;-74
2024/01/25 00:04:55;;;;;;;12.77;4.18;;;10.20;95.60;;;;;;6209210;23;20012;-74
2024/01/25 00:07:48;;;;;;;13.55;4.10;;;10.20;95.70;;;;;;6210777;23;20015;-73
2024/01/25 00:10:34;;;;;;;12.82;3.60;;;10.20;95.70;;;;;;6211917;23;20016;-71
2024/01/25 00:13:19;;;;;;;13.93;4.05;;;10.20;95.80;;;;;;6210299;23;20009;-72
2024/01/25 00:16:06;;;;;;;18.55;5.15;;;10.20;95.80;;;;;;6209327;23;20021;-71
2024/01/25 00:18:52;;;;;;;10.88;3.63;;;10.20;95.90;;;;;;6210381;23;20009;-73
2024/01/25 00:21:44;;;;;;;17.92;4.15;;;10.20;96.00;;;;;;6210327;23;20505;-73
2024/01/25 00:24:30;;;;;;;16.33;3.90;;;10.10;96.00;;;;;;6211123;23;20063;-72
2024/01/25 00:27:16;;;;;;;18.38;5.18;;;10.20;96.10;;;;;;6188633;23;20012;-72
2024/01/25 00:30:04;;;;;;;15.40;4.63;;;10.20;96.10;;;;;;6187844;23;20015;-72
2024/01/25 00:32:50;;;;;;;20.50;4.35;;;10.10;96.20;;;;;;6211873;23;20036;-72
2024/01/25 00:35:36;;;;;;;10.63;3.97;;;10.10;96.20;;;;;;6225105;23;20077;-72
2024/01/25 00:38:22;;;;;;;22.23;4.18;;;10.20;96.20;;;;;;6235371;23;20056;-72
2024/01/25 00:41:10;;;;;;;12.43;3.50;;;10.20;96.20;;;;;;6227418;23;20063;-72
2024/01/25 00:43:56;;;;;;;12.95;4.32;;;10.20;96.20;;;;;;6226673;23;20032;-72
2024/01/25 00:46:43;;;;;;;15.63;4.22;;;10.20;96.20;;;;;;6215283;23;20311;-72
2024/01/25 00:49:29;;;;;;;15.15;3.40;;;10.20;96.20;;;;;;6210388;23;20009;-73
2024/01/25 00:52:15;;;;;;;16.63;3.88;;;10.20;96.20;;;;;;6210895;23;20043;-72
2024/01/25 00:55:02;;;;;;;15.88;4.72;;;10.20;96.20;;;;;;6209612;23;20334;-71
2024/01/25 00:57:48;;;;;;;14.27;4.70;;;10.20;96.30;;;;;;6210934;23;20029;-73
2024/01/25 01:00:34;;;;;;;13.55;4.25;;;10.20;96.40;;;;;;6211924;23;20079;-72
2024/01/25 01:03:20;;;;;;;19.92;4.80;;;10.20;96.40;;;;;;6211298;23;20012;-71
2024/01/25 01:06:07;;;;;;;12.82;3.88;;;10.20;96.30;;;;;;6188564;23;20020;-72
2024/01/25 01:08:53;;;;;;;12.95;4.03;;;10.20;96.30;;;;;;6208701;23;20009;-71
2024/01/25 01:11:39;;;;;;;12.05;4.30;;;10.20;96.30;;;;;;6209660;23;20008;-72
2024/01/25 01:14:25;;;;;;;10.35;3.70;;;10.20;96.40;;;;;;6210849;23;20020;-72
2024/01/25 01:17:11;;;;;;;16.08;4.18;;;10.10;96.30;;;;;;6210595;23;20043;-73
2024/01/25 01:19:57;;;;;;;12.13;3.72;;;10.20;96.30;;;;;;6209643;23;20311;-72
2024/01/25 01:22:43;;;;;;;14.98;4.45;;;10.20;96.30;;;;;;6208876;23;20009;-72
2024/01/25 01:25:29;;;;;;;17.67;4.47;;;10.10;96.30;;;;;;6209804;23;20022;-72
2024/01/25 01:28:14;;;;;;;9.52;3.08;;;10.10;96.20;;;;;;6209007;23;20009;-73
2024/01/25 01:31:00;;;;;;;9.73;2.88;;;10.20;96.20;;;;;;6188668;23;20071;-72
2024/01/25 01:33:46;;;;;;;11.75;3.97;;;10.10;96.20;;;;;;6210720;23;20093;-69
2024/01/25 01:36:32;;;;;;;13.05;3.50;;;10.20;96.20;;;;;;6210419;23;20409;-69
2024/01/25 01:39:18;;;;;;;14.75;3.08;;;10.20;96.20;;;;;;6209048;23;20501;-69
2024/01/25 01:42:04;;;;;;;11.98;3.30;;;10.10;96.20;;;;;;6187777;23;20435;-69
2024/01/25 01:44:52;;;;;;;13.05;3.33;;;10.10;96.10;;;;;;6208505;23;20009;-71
2024/01/25 01:47:38;;;;;;;11.35;2.95;;;10.10;96.10;;;;;;6190343;23;20024;-71
2024/01/25 01:50:24;;;;;;;20.60;4.03;;;10.10;96.10;;;;;;6211893;23;20140;-72
2024/01/25 01:53:11;;;;;;;13.55;3.70;;;10.10;96.10;;;;;;6211804;23;20008;-72
2024/01/25 01:55:57;;;;;;;8.70;2.85;;;10.10;96.10;;;;;;6190051;23;20091;-72
2024/01/25 01:58:44;;;;;;;17.38;4.35;;;10.10;96.10;;;;;;6212171;23;20013;-72
2024/01/25 02:01:31;;;;;;;15.07;4.18;;;10.00;96.00;;;;;;6214372;23;20398;-72
2024/01/25 02:04:17;;;;;;;14.13;5.15;;;10.10;96.10;;;;;;6210836;23;20147;-72
2024/01/25 02:07:03;;;;;;;10.02;3.33;;;10.00;96.00;;;;;;6211806;23;20004;-72
2024/01/25 02:09:49;;;;;;;10.52;3.47;;;10.00;96.10;;;;;;6212866;23;20044;-72
2024/01/25 02:12:36;;;;;;;14.18;4.50;;;10.00;96.10;;;;;;6189598;23;20001;-72
2024/01/25 02:15:22;;;;;;;14.27;3.67;;;10.10;96.20;;;;;;6211643;23;20343;-71
2024/01/25 02:18:08;;;;;;;17.10;4.10;;;10.00;96.10;;;;;;6210520;23;20446;-72
2024/01/25 02:20:54;;;;;;;14.02;4.65;;;10.10;96.10;;;;;;6212003;23;20005;-72
2024/01/25 02:23:41;;;;;;;10.52;3.78;;;10.00;96.10;;;;;;6211785;23;20012;-72
2024/01/25 02:26:26;;;;;;;9.93;3.60;;;10.00;96.10;;;;;;6190306;23;20005;-71
2024/01/25 02:29:12;;;;;;;14.15;4.38;;;10.10;96.10;;;;;;6211257;23;20008;-71
2024/01/25 02:31:58;;;;;;;16.40;5.00;;;10.10;96.10;;;;;;6189681;23;20035;-72
2024/01/25 02:34:44;;;;;;;14.30;4.20;;;10.00;96.00;;;;;;6211602;23;20466;-72
2024/01/25 02:37:30;;;;;;;14.73;4.10;;;10.00;96.10;;;;;;6209939;23;20027;-71
2024/01/25 02:40:16;;;;;;;17.65;3.63;;;10.00;96.10;;;;;;6211938;23;20436;-71
2024/01/25 02:43:02;;;;;;;13.77;4.85;;;10.00;96.20;;;;;;6211812;23;20346;-72
2024/01/25 02:45:48;;;;;;;17.92;4.00;;;10.00;96.20;;;;;;6210540;23;20315;-72
2024/01/25 02:48:34;;;;;;;18.58;5.40;;;10.00;96.20;;;;;;6210034;23;20349;-72
2024/01/25 02:51:20;;;;;;;17.23;4.70;;;10.00;96.30;;;;;;6212452;23;20005;-72
2024/01/25 02:54:06;;;;;;;12.23;3.80;;;10.00;96.20;;;;;;6211810;23;20067;-72
2024/01/25 02:56:52;;;;;;;18.80;4.85;;;10.00;96.20;;;;;;6210870;23;20021;-71
2024/01/25 02:59:38;;;;;;;16.08;4.88;;;9.90;96.30;;;;;;6210625;23;20035;-70
2024/01/25 03:02:24;;;;;;;19.00;4.10;;;10.00;96.30;;;;;;6211432;23;20013;-71
2024/01/25 03:05:10;;;;;;;12.25;4.13;;;10.00;96.30;;;;;;6190075;23;20008;-71
2024/01/25 03:07:56;;;;;;;16.15;4.72;;;10.00;96.30;;;;;;6210209;23;20012;-71
2024/01/25 03:10:42;;;;;;;24.75;5.63;;;9.90;96.20;;;;;;6210919;23;20091;-71
2024/01/25 03:13:28;;;;;;;18.15;5.15;;;9.90;96.30;;;;;;6211081;23;20044;-71
2024/01/25 03:16:14;;;;;;;14.05;3.80;;;9.90;96.30;;;;;;6189430;23;20021;-72
2024/01/25 03:19:00;;;;;;;21.83;5.05;;;9.90;96.20;;;;;;6187875;23;20012;-71
2024/01/25 03:21:46;;;;;;;13.65;4.15;;;10.00;96.20;;;;;;6209871;23;20017;-71
2024/01/25 03:24:32;;;;;;;19.90;5.10;;;9.90;96.10;;;;;;6188672;23;20037;-71
2024/01/25 03:27:18;;;;;;;15.70;4.43;;;9.90;96.20;;;;;;6212891;23;20016;-72
2024/01/25 03:30:06;;;;;;;15.57;4.93;;;9.90;96.10;;;;;;6210373;23;20009;-71
2024/01/25 03:32:51;;;;;;;14.75;3.78;;;9.90;96.20;;;;;;6212329;23;20043;-70
2024/01/25 03:35:37;;;;;;;13.55;4.15;;;9.90;96.10;;;;;;6211733;23;20095;-70
2024/01/25 03:38:23;;;;;;;16.17;4.65;;;9.90;96.10;;;;;;6211026;23;20012;-72
2024/01/25 03:41:09;;;;;;;17.52;4.55;;;9.90;96.00;;;;;;6210163;23;20015;-71
2024/01/25 03:43:55;;;;;;;14.32;4.13;;;9.90;95.90;;;;;;6210861;23;20020;-71
2024/01/25 03:46:41;;;;;;;13.77;4.32;;;9.90;95.90;;;;;;6189771;23;20012;-71
2024/01/25 03:49:27;;;;;;;15.75;4.03;;;9.90;95.80;;;;;;6222094;23;20004;-71
2024/01/25 03:52:13;;;;;;;9.55;4.18;;;9.90;95.90;;;;;;6234875;23;20016;-71
2024/01/25 03:54:59;;;;;;;17.83;4.15;;;9.90;95.80;;;;;;6221537;23;20059;-69
2024/01/25 03:57:45;;;;;;;14.85;4.15;;;9.90;95.70;;;;;;6191002;23;20020;-69
2024/01/25 04:00:31;;;;;;;17.02;4.47;;;9.80;95.80;;;;;;6209199;23;20032;-68
2024/01/25 04:03:17;;;;;;;13.73;4.70;;;9.80;95.80;;;;;;6209578;23;20027;-68
2024/01/25 04:06:03;;;;;;;13.98;4.38;;;9.80;95.90;;;;;;6211256;23;20082;-69
2024/01/25 04:08:49;;;;;;;15.65;4.63;;;9.80;95.80;;;;;;6210550;23;20079;-69
2024/01/25 04:11:36;;;;;;;12.27;3.72;;;9.80;95.80;;;;;;6210076;23;20450;-69
2024/01/25 04:14:22;;;;;;;14.20;3.95;;;9.70;95.70;;;;;;6211619;23;20009;-69
2024/01/25 04:17:08;;;;;;;13.30;4.18;;;9.80;95.80;;;;;;6189040;23;20021;-68
2024/01/25 04:19:54;;;;;;;14.38;4.53;;;9.80;95.80;;;;;;6210144;23;20008;-69
2024/01/25 04:22:40;;;;;;;18.95;4.97;;;9.70;95.80;;;;;;6188615;23;20008;-69
2024/01/25 04:25:26;;;;;;;19.15;4.85;;;9.70;95.90;;;;;;6210470;23;20009;-67
2024/01/25 04:28:12;;;;;;;11.20;4.07;;;9.70;95.80;;;;;;6189952;23;20099;-68
2024/01/25 04:30:58;;;;;;;18.67;4.53;;;9.70;95.90;;;;;;6209265;23;20059;-68
2024/01/25 04:33:44;;;;;;;19.00;4.97;;;9.70;95.90;;;;;;6210758;23;20320;-68
2024/01/25 04:36:30;;;;;;;17.83;5.13;;;9.70;96.10;;;;;;6210828;23;20017;-68
2024/01/25 04:39:16;;;;;;;15.18;4.57;;;9.70;95.90;;;;;;6210062;23;20008;-69
2024/01/25 04:42:02;;;;;;;20.50;4.90;;;9.70;95.90;;;;;;6209014;23;20016;-69
2024/01/25 04:44:48;;;;;;;15.95;5.53;;;9.70;96.00;;;;;;6211597;23;20013;-69
2024/01/25 04:47:34;;;;;;;18.20;4.35;;;9.70;96.00;;;;;;6209780;23;20337;-69
2024/01/25 04:50:20;;;;;;;14.18;4.57;;;9.70;96.00;;;;;;6210965;23;20059;-67
2024/01/25 04:53:06;;;;;;;16.25;4.78;;;9.70;95.90;;;;;;6210461;23;20421;-67
2024/01/25 04:55:54;;;;;;;17.50;4.25;;;9.70;95.90;;;;;;6188364;23;20011;-66
2024/01/25 04:58:40;;;;;;;18.50;3.90;;;9.70;95.90;;;;;;6210721;23;20017;-68
2024/01/25 05:01:26;;;;;;;10.27;3.97;;;9.70;95.90;;;;;;6210541;23;20013;-67
2024/01/25 05:04:12;;;;;;;15.60;5.00;;;9.70;95.90;;;;;;6209973;23;20044;-67
2024/01/25 05:06:58;;;;;;;16.08;3.85;;;9.70;96.00;;;;;;6188984;23;20040;-67
2024/01/25 05:09:44;;;;;;;12.95;4.45;;;9.70;96.00;;;;;;6209826;23;20523;-66
2024/01/25 05:12:30;;;;;;;16.08;3.90;;;9.60;96.00;;;;;;6208814;23;20008;-67
2024/01/25 05:15:16;;;;;;;17.83;4.97;;;9.60;96.10;;;;;;6210343;23;20012;-67
2024/01/25 05:18:02;;;;;;;14.25;3.33;;;9.60;96.10;;;;;;6212105;23;20012;-66
2024/01/25 05:20:48;;;;;;;11.70;4.57;;;9.60;96.10;;;;;;6211233;23;20473;-66
2024/01/25 05:23:34;;;;;;;13.73;4.53;;;9.60;96.10;;;;;;6213089;23;20012;-67
2024/01/25 05:26:21;;;;;;;10.25;4.05;;;9.70;96.10;;;;;;6211600;23;20091;-68
2024/01/25 05:29:07;;;;;;;9.32;3.67;;;9.70;96.20;;;;;;6191093;23;20012;-67
2024/01/25 05:31:53;;;;;;;17.85;4.60;;;9.60;96.10;;;;;;6212762;23;20008;-68
2024/01/25 05:34:39;;;;;;;10.57;3.38;;;9.60;96.20;;;;;;6209282;23;20012;-66
2024/01/25 05:37:25;;;;;;;13.05;4.13;;;9.60;96.20;;;;;;6210214;23;20021;-67
2024/01/25 05:40:11;;;;;;;11.63;4.30;;;9.60;96.20;;;;;;6190101;23;20008;-68
2024/01/25 05:42:57;;;;;;;14.02;5.05;;;9.50;96.20;;;;;;6212535;23;20083;-66
2024/01/25 05:45:43;;;;;;;16.08;5.18;;;9.50;96.20;;;;;;6210905;23;20126;-67
2024/01/25 05:48:29;;;;;;;13.77;3.15;;;9.50;96.10;;;;;;6212954;23;20005;-70
2024/01/25 05:51:15;;;;;;;15.20;3.95;;;9.50;96.00;;;;;;6211193;23;20036;-69
2024/01/25 05:54:01;;;;;;;13.50;4.22;;;9.50;96.10;;;;;;6189356;23;20004;-70
2024/01/25 05:56:47;;;;;;;12.75;3.55;;;9.50;95.90;;;;;;6212000;23;20021;-71
2024/01/25 05:59:33;;;;;;;12.48;5.30;;;9.50;95.80;;;;;;6212309;23;20084;-70
2024/01/25 06:02:19;;;;;;;11.38;3.65;;;9.50;95.90;;;;;;6212216;23;20016;-70
2024/01/25 06:05:05;;;;;;;14.25;5.25;;;9.60;95.80;;;;;;6209681;23;20377;-70
2024/01/25 06:07:51;;;;;;;9.13;3.22;;;9.60;95.80;;;;;;6212004;23;20016;-70
2024/01/25 06:10:37;;;;;;;15.32;3.78;;;9.60;95.80;;;;;;6212161;23;20319;-70
2024/01/25 06:13:23;;;;;;;11.27;3.20;;;9.60;95.80;;;;;;6213169;23;20020;-70
2024/01/25 06:16:09;;;;;;;12.60;3.20;;;9.60;95.80;;;;;;6210086;23;20024;-70
2024/01/25 06:18:55;;;;;;;9.43;3.33;;;9.60;95.80;;;;;;6210834;23;20016;-72
2024/01/25 06:21:41;;;;;;;17.90;5.45;;;9.60;95.90;;;;;;6210966;23;20048;-73
2024/01/25 06:24:26;;;;;;;13.48;3.50;;;9.50;95.70;;;;;;6189535;23;20016;-73
2024/01/25 06:27:12;;;;;;;15.73;3.95;;;9.50;95.80;;;;;;6211271;23;20370;-73
2024/01/25 06:29:58;;;;;;;11.38;3.72;;;9.50;95.80;;;;;;6190180;23;20012;-73
2024/01/25 06:32:44;;;;;;;12.95;3.72;;;9.60;95.80;;;;;;6190710;23;20013;-72
2024/01/25 06:35:31;;;;;;;12.25;4.00;;;9.60;95.80;;;;;;6211896;23;20013;-72
2024/01/25 06:38:18;;;;;;;10.60;3.67;;;9.60;95.80;;;;;;6211561;23;20121;-72
2024/01/25 06:41:04;;;;;;;16.00;4.95;;;9.60;95.80;;;;;;6211030;23;20314;-72
2024/01/25 06:43:50;;;;;;;12.02;4.07;;;9.60;95.80;;;;;;6211634;23;20042;-72
2024/01/25 06:46:36;;;;;;;14.95;4.30;;;9.60;95.80;;;;;;6210289;23;20036;-72
2024/01/25 06:49:22;;;;;;;13.95;4.95;;;9.60;95.70;;;;;;6189782;23;20092;-73
2024/01/25 06:52:08;;;;;;;11.40;4.45;;;9.60;95.70;;;;;;6211870;23;20071;-72
2024/01/25 06:54:54;;;;;;;11.63;3.63;;;9.60;95.70;;;;;;6210776;23;20063;-71
2024/01/25 06:57:40;;;;;;;12.95;3.03;;;9.60;95.70;;;;;;6211921;23;20047;-66
2024/01/25 07:00:26;;;;;;;11.55;3.88;;;9.60;95.60;;;;;;6209516;23;20012;-69
2024/01/25 07:03:12;;;;;;;12.63;3.25;;;9.60;95.70;;;;;;6233080;23;20012;-67
2024/01/25 07:05:58;;;;;;;12.85;3.42;;;9.60;95.50;;;;;;6212727;23;20013;-69
2024/01/25 07:08:45;;;;;;;15.40;4.63;;;9.60;95.60;;;;;;6211460;23;20013;-67
2024/01/25 07:11:31;;;;;;;12.35;2.90;;;9.60;95.50;;;;;;6211482;23;20039;-67
2024/01/25 07:14:17;;;;;;;17.45;3.80;;;9.50;95.50;;;;;;6209790;23;20013;-68
2024/01/25 07:17:03;;;;;;;15.85;3.85;;;9.60;95.50;;;;;;6211241;23;20097;-68
2024/01/25 07:19:49;;;;;;;14.88;4.13;;;9.60;95.40;;;;;;6212138;23;20341;-67
2024/01/25 07:22:35;;;;;;;8.85;2.95;;;9.50;95.40;;;;;;6209984;23;20433;-68
2024/01/25 07:25:21;;;;;;;13.63;3.80;;;9.60;95.50;;;;;;6212516;23;20013;-69
2024/01/25 07:28:07;;;;;;;15.95;2.72;;;9.60;95.50;;;;;;6187481;23;20024;-69
2024/01/25 07:30:53;;;;;;;11.07;2.80;;;9.60;95.50;;;;;;6210656;23;20087;-68
2024/01/25 07:33:39;;;;;;;9.77;3.00;;;9.60;95.50;;;;;;6209846;23;20016;-67
2024/01/25 07:36:25;;;;;;;13.07;3.05;;;9.60;95.60;;;;;;6209923;23;20024;-68
2024/01/25 07:39:11;;;;;;;12.60;3.25;;;9.60;95.50;;;;;;6210296;23;20528;-68
2024/01/25 07:41:57;;;;;;;12.98;3.22;;;9.70;95.60;;;;;;6212782;23;20013;-69
2024/01/25 07:44:43;;;;;;;16.77;3.95;;;9.70;95.60;;;;;;6209368;23;20083;-69
2024/01/25 07:47:29;;;;;;;19.98;4.22;;;9.70;95.50;;;;;;6210900;23;20044;-68
2024/01/25 07:50:16;;;;;;;12.95;3.45;;;9.70;95.60;;;;;;6210923;23;20040;-68
2024/01/25 07:53:03;;;;;;;17.33;4.00;;;9.60;95.50;;;;;;6211680;23;20341;-68
2024/01/25 07:55:49;;;;;;;12.80;4.15;;;9.60;95.50;;;;;;6211692;23;20323;-67
2024/01/25 07:58:36;;;;;;;12.43;3.13;;;9.70;95.60;;;;;;6212028;23;20017;-69
2024/01/25 08:01:21;;;;;;;16.65;4.15;;;9.60;95.50;;;;;;6211331;23;20019;-69
2024/01/25 08:04:07;;;;;;;8.90;2.95;;;9.70;95.60;;;;;;6211528;23;20438;-69
2024/01/25 08:06:53;;;;;;;12.48;3.63;;;9.70;95.60;;;;;;6211072;23;20142;-69
2024/01/25 08:09:39;;;;;;;11.90;3.70;;;9.70;95.60;;;;;;6210324;23;20020;-69
2024/01/25 08:12:25;;;;;;;12.70;4.38;;;9.70;95.90;;;;;;6189625;23;20047;-70
2024/01/25 08:15:12;;;;;;;10.40;4.00;;;9.70;95.70;;;;;;6210391;23;20377;-69
2024/01/25 08:17:58;;;;;;;14.02;4.32;;;9.80;95.60;;;;;;6211083;23;20049;-69
2024/01/25 08:20:44;;;;;;;15.02;4.50;;;9.70;95.50;;;;;;6209479;23;20005;-69
2024/01/25 08:23:29;;;;;;;11.77;4.80;;;9.80;95.60;;;;;;6209676;23;20015;-69
2024/01/25 08:26:15;;;;;;;16.65;3.45;;;9.80;95.50;;;;;;6210087;23;20008;-69
2024/01/25 08:29:01;;;;;;;11.68;3.60;;;9.80;95.50;;;;;;6210496;23;20016;-69
2024/01/25 08:31:48;;;;;;;12.23;4.10;;;9.80;95.40;;;;;;6212144;23;20071;-69
2024/01/25 08:34:33;;;;;;;16.02;4.03;;;9.80;95.50;;;;;;6211950;23;20013;-68
2024/01/25 08:37:19;;;;;;;11.20;3.70;;;9.80;95.50;;;;;;6209825;23;20070;-69
2024/01/25 08:40:06;;;;;;;21.25;4.53;;;9.80;95.40;;;;;;6210910;23;20314;-69
2024/01/25 08:42:52;;;;;;;13.55;3.85;;;9.90;95.40;;;;;;6209855;23;20044;-69
2024/01/25 08:45:38;;;;;;;18.77;5.15;;;9.90;95.40;;;;;;6210064;23;20128;-69
2024/01/25 08:48:24;;;;;;;10.45;4.38;;;9.90;95.40;;;;;;6209965;23;20005;-69
2024/01/25 08:51:10;;;;;;;10.80;3.63;;;9.90;95.30;;;;;;6211833;23;20429;-69
2024/01/25 08:53:56;;;;;;;13.38;4.22;;;9.80;95.30;;;;;;6210644;23;20337;-69
2024/01/25 08:56:42;;;;;;;11.60;3.88;;;9.80;95.30;;;;;;6210968;23;20048;-69
2024/01/25 08:59:30;;;;;;;11.85;4.32;;;9.90;95.40;;;;;;6212464;23;20023;-68
2024/01/25 09:02:17;;;;;;;13.30;4.00;;;9.90;95.30;;;;;;6210688;23;20107;-67
2024/01/25 09:05:04;;;;;;;14.90;4.47;;;9.80;95.20;;;;;;6213784;23;20530;-69
2024/01/25 09:07:50;;;;;;;23.83;5.15;;;9.80;95.30;;;;;;6212970;23;20078;-61
2024/01/25 09:10:36;;;;;;;13.50;4.43;;;9.90;95.30;;;;;;6213228;23;20036;-61
2024/01/25 09:13:22;;;;;;;10.60;3.08;;;9.90;95.30;;;;;;6211969;23;20468;-60
2024/01/25 09:16:08;;;;;;;12.30;5.05;;;9.90;95.30;;;;;;6211713;23;20076;-61
2024/01/25 09:18:54;;;;;;;16.92;4.53;;;10.00;95.30;;;;;;6212304;23;20012;-60
2024/01/25 09:21:40;;;;;;;13.30;3.75;;;10.00;95.20;;;;;;6212014;23;20037;-61
2024/01/25 09:24:26;;;;;;;10.55;3.92;;;9.90;95.20;;;;;;6211446;23;20044;-61
2024/01/25 09:27:12;;;;;;;15.02;3.15;;;10.00;95.10;;;;;;6212266;23;20008;-61
2024/01/25 09:29:58;;;;;;;11.77;4.18;;;10.00;95.10;;;;;;6212248;23;20022;-61
2024/01/25 09:32:44;;;;;;;15.23;4.28;;;9.90;95.10;;;;;;6212935;23;20005;-60
2024/01/25 09:35:30;;;;;;;13.90;4.90;;;9.90;95.20;;;;;;6212351;23;20051;-63
2024/01/25 09:38:16;;;;;;;12.98;4.30;;;10.00;95.20;;;;;;6214153;23;20526;-62
2024/01/25 09:41:03;;;;;;;13.90;4.43;;;9.90;95.20;;;;;;6212802;23;20021;-62
2024/01/25 09:43:49;;;;;;;11.93;3.42;;;9.90;95.20;;;;;;6211806;23;20068;-62
2024/01/25 09:46:35;;;;;;;13.88;4.88;;;9.90;95.20;;;;;;6212394;23;20038;-62
2024/01/25 09:49:21;;;;;;;12.77;4.13;;;9.90;95.20;;;;;;6212488;23;20005;-62
2024/01/25 09:52:12;;;;;;;11.80;3.78;;;10.00;95.30;;;;;;6188487;23;20599;-62
2024/01/25 09:54:58;;;;;;;14.52;4.82;;;10.00;95.20;;;;;;6211865;23;20019;-62
2024/01/25 09:57:48;;;;;;;11.82;3.95;;;10.00;95.30;;;;;;6212207;23;20205;-62
2024/01/25 10:00:34;;;;;;;16.73;4.05;;;10.00;95.30;;;;;;6214113;23;20005;-62
2024/01/25 10:03:20;;;;;;;14.93;4.40;;;10.00;95.30;;;;;;6212700;23;20020;-62
2024/01/25 10:06:07;;;;;;;8.55;3.17;;;9.90;95.30;;;;;;6190840;23;20267;-62
2024/01/25 10:08:53;;;;;;;10.38;3.20;;;9.90;95.30;;;;;;6209991;23;20083;-63
2024/01/25 10:11:39;;;;;;;17.83;4.50;;;9.90;95.20;;;;;;6210549;23;20331;-63
2024/01/25 10:14:25;;;;;;;15.00;3.22;;;9.90;95.30;;;;;;6225310;23;20704;-61
2024/01/25 10:17:11;;;;;;;13.20;3.78;;;10.00;95.30;;;;;;6228730;23;20103;-62
2024/01/25 10:19:57;;;;;;;10.70;3.50;;;10.00;95.20;;;;;;6213388;23;20012;-62
2024/01/25 10:22:43;;;;;;;13.27;3.35;;;10.00;95.20;;;;;;6212650;23;20341;-62
2024/01/25 10:25:29;;;;;;;17.98;5.10;;;10.00;95.30;;;;;;6211314;23;20453;-63
2024/01/25 10:28:16;;;;;;;12.10;4.60;;;10.10;95.30;;;;;;6211444;23;20159;-63
2024/01/25 10:31:04;;;;;;;12.82;4.05;;;10.00;95.20;;;;;;6212118;23;20325;-62
2024/01/25 10:33:53;;;;;;;17.02;4.65;;;10.10;95.30;;;;;;6211818;23;20023;-63
2024/01/25 10:36:40;;;;;;;8.98;3.33;;;10.10;95.30;;;;;;6211754;23;20020;-62
2024/01/25 10:39:26;;;;;;;14.90;3.67;;;10.20;95.20;;;;;;6213303;23;20422;-62
2024/01/25 17:49:05;;;;;;;15.65;5.35;;;9.70;95.90;;;;;;6213295;23;20020;-66
2024/01/25 17:51:51;;;;;;;10.80;4.88;;;9.70;96.00;;;;;;6211944;23;20549;-66
2024/01/25 17:54:37;;;;;;;11.70;4.95;;;9.70;96.00;;;;;;6213395;23;20013;-67
2024/01/25 17:57:23;;;;;;;16.35;5.43;;;9.70;96.10;;;;;;6192021;23;20068;-68
2024/01/25 18:00:10;;;;;;;11.15;3.67;;;9.70;96.10;;;;;;6213904;23;20091;-68
2024/01/25 18:02:56;;;;;;;13.10;4.28;;;9.70;96.10;;;;;;6210800;23;20457;-67
2024/01/25 18:05:42;;;;;;;11.80;4.10;;;9.80;96.10;;;;;;6213596;23;20088;-66
2024/01/25 18:08:28;;;;;;;9.55;4.05;;;9.80;96.10;;;;;;6213719;23;20099;-67
2024/01/25 18:11:15;;;;;;;14.05;3.72;;;9.70;96.10;;;;;;6190863;23;20457;-67
2024/01/25 18:14:01;;;;;;;9.52;3.45;;;9.70;96.20;;;;;;6212979;23;20013;-66
2024/01/25 18:16:47;;;;;;;11.90;3.97;;;9.70;96.20;;;;;;6213933;23;20020;-67
2024/01/25 18:19:35;;;;;;;14.05;4.60;;;9.70;96.30;;;;;;6213455;23;20588;-66
2024/01/25 18:22:21;;;;;;;13.25;3.88;;;9.70;96.40;;;;;;6212395;23;20588;-67
2024/01/25 18:25:07;;;;;;;12.48;4.80;;;9.60;96.40;;;;;;6190691;23;20450;-68
2024/01/25 18:27:56;;;;;;;20.90;5.45;;;9.70;96.60;;;;;;6212442;23;20353;-66
2024/01/25 18:30:42;;;;;;;13.75;4.90;;;9.60;96.40;;;;;;6189993;23;20011;-66
2024/01/25 18:33:28;;;;;;;10.38;5.03;;;9.60;96.50;;;;;;6213198;23;20630;-66
2024/01/25 18:36:14;;;;;;;11.23;4.38;;;9.60;96.50;;;;;;6214069;23;20060;-67
2024/01/25 18:39:00;;;;;;;9.82;4.22;;;9.60;96.50;;;;;;6213627;23;20024;-66
2024/01/25 18:41:46;;;;;;;11.57;3.83;;;9.50;96.50;;;;;;6213277;23;20024;-66
2024/01/25 18:44:32;;;;;;;16.67;5.18;;;9.60;96.60;;;;;;6212304;23;20080;-66
2024/01/25 18:47:20;;;;;;;13.18;4.50;;;9.60;96.60;;;;;;6228890;23;20099;-66
2024/01/25 18:50:06;;;;;;;11.73;4.38;;;9.50;96.60;;;;;;6240498;23;20019;-66
2024/01/25 18:52:52;;;;;;;17.30;4.13;;;9.60;96.70;;;;;;6220544;23;20008;-66
2024/01/25 18:55:38;;;;;;;12.95;3.70;;;9.60;96.70;;;;;;6240398;23;20016;-66
2024/01/25 18:58:25;;;;;;;8.38;3.42;;;9.60;96.70;;;;;;6220727;23;20020;-67
2024/01/25 19:01:12;;;;;;;10.40;3.65;;;9.60;96.70;;;;;;6241522;23;20043;-66
2024/01/25 19:03:58;;;;;;;7.57;3.67;;;9.60;96.70;;;;;;6240893;23;20239;-66
2024/01/25 19:06:52;;;;;;;13.88;4.72;;;9.60;96.80;;;;;;6241511;23;20008;-67
2024/01/25 19:09:39;;;;;;;17.00;3.65;;;9.50;96.80;;;;;;6242177;23;20004;-66
2024/01/25 19:12:24;;;;;;;12.88;4.22;;;9.50;96.90;;;;;;6240786;23;20011;-67
2024/01/25 19:15:11;;;;;;;21.08;4.43;;;9.50;97.00;;;;;;6242025;23;20364;-67
2024/01/25 19:17:57;;;;;;;11.65;4.75;;;9.40;97.00;;;;;;6240236;23;20078;-67
2024/01/25 19:20:43;;;;;;;13.50;4.80;;;9.50;97.10;;;;;;6220333;23;20008;-67
2024/01/25 19:23:29;;;;;;;10.95;4.10;;;9.50;97.00;;;;;;6241335;23;20381;-68
2024/01/25 19:26:15;;;;;;;9.45;3.60;;;9.60;97.00;;;;;;6242759;23;20056;-67
2024/01/25 19:29:01;;;;;;;10.52;3.45;;;9.60;97.00;;;;;;6242504;23;20035;-67
2024/01/25 19:31:46;;;;;;;13.25;3.95;;;9.60;97.00;;;;;;6240328;23;20009;-68
2024/01/25 19:34:32;;;;;;;10.82;4.18;;;9.60;97.00;;;;;;6241196;23;20019;-65
2024/01/25 19:37:18;;;;;;;13.40;3.97;;;9.60;97.00;;;;;;6241703;23;20021;-64
2024/01/25 19:40:05;;;;;;;12.00;4.53;;;9.60;97.00;;;;;;6242128;23;20032;-66
2024/01/25 19:42:51;;;;;;;11.65;4.78;;;9.50;97.00;;;;;;6240559;23;20016;-65
2024/01/25 19:45:37;;;;;;;13.75;5.07;;;9.60;97.00;;;;;;6242481;23;20008;-65
2024/01/25 19:48:23;;;;;;;11.48;4.63;;;9.60;97.00;;;;;;6241709;23;20043;-65
2024/01/25 19:51:09;;;;;;;21.50;5.93;;;9.60;97.00;;;;;;6241708;23;20318;-65
2024/01/25 19:53:55;;;;;;;11.05;4.68;;;9.50;97.00;;;;;;6241924;23;20465;-65
2024/01/25 19:56:41;;;;;;;16.73;5.43;;;9.50;97.00;;;;;;6242755;23;20026;-64
2024/01/25 19:59:27;;;;;;;12.63;4.90;;;9.50;97.00;;;;;;6239450;23;20449;-66
2024/01/25 20:02:14;;;;;;;14.00;5.40;;;9.50;97.10;;;;;;6220195;23;20008;-65
2024/01/25 20:05:00;;;;;;;17.15;5.05;;;9.50;97.10;;;;;;6242516;23;20079;-65
2024/01/25 20:07:46;;;;;;;13.13;4.88;;;9.50;97.10;;;;;;6241293;23;20456;-66
2024/01/25 20:10:32;;;;;;;14.73;5.03;;;9.50;97.20;;;;;;6241414;23;20341;-66
2024/01/25 20:13:18;;;;;;;16.20;4.45;;;9.50;97.20;;;;;;6239986;23;20508;-67
2024/01/25 20:16:05;;;;;;;11.65;4.68;;;9.50;97.20;;;;;;6240031;23;20008;-65
2024/01/25 20:18:51;;;;;;;10.10;3.90;;;9.50;97.20;;;;;;6240434;23;20109;-65
2024/01/25 20:21:37;;;;;;;15.63;5.15;;;9.40;97.20;;;;;;6239321;23;20132;-65
2024/01/25 20:24:23;;;;;;;17.23;5.10;;;9.40;97.20;;;;;;6239476;23;20099;-65
2024/01/25 20:27:09;;;;;;;17.95;6.18;;;9.40;97.20;;;;;;6219155;23;20377;-65
2024/01/25 20:29:55;;;;;;;17.38;5.53;;;9.40;97.20;;;;;;6240209;23;20046;-65
2024/01/25 20:32:41;;;;;;;13.82;5.18;;;9.40;97.30;;;;;;6239823;23;20012;-65
2024/01/25 20:35:27;;;;;;;16.63;4.80;;;9.30;97.30;;;;;;6257378;23;20131;-65
2024/01/25 20:38:13;;;;;;;15.82;5.82;;;9.30;97.40;;;;;;6258916;23;20019;-65
2024/01/25 20:40:59;;;;;;;15.30;6.00;;;9.30;97.40;;;;;;6240272;23;20004;-65
2024/01/25 20:43:45;;;;;;;14.02;5.50;;;9.20;97.60;;;;;;6241891;23;20008;-65
2024/01/25 20:46:32;;;;;;;16.40;5.00;;;9.20;97.40;;;;;;6241021;22;20048;-66
2024/01/25 20:49:18;;;;;;;14.40;5.45;;;9.20;97.40;;;;;;6240121;23;20807;-66
2024/01/25 20:52:06;;;;;;;13.07;4.93;;;9.20;97.40;;;;;;6242911;23;20365;-66
2024/01/25 20:54:52;;;;;;;15.05;4.78;;;9.10;97.40;;;;;;6242255;23;20008;-66
2024/01/25 20:57:38;;;;;;;10.80;4.68;;;9.10;97.40;;;;;;6239880;23;20352;-65
2024/01/25 21:00:24;;;;;;;14.20;4.97;;;9.10;97.40;;;;;;6241735;23;20062;-66
2024/01/25 21:03:10;;;;;;;14.13;4.85;;;9.00;97.40;;;;;;6243653;23;20019;-66
2024/01/25 21:05:57;;;;;;;17.63;4.78;;;9.00;97.50;;;;;;6220478;23;20071;-66
2024/01/25 21:08:43;;;;;;;15.57;4.82;;;9.00;97.50;;;;;;6221161;23;20349;-66
2024/01/25 21:11:29;;;;;;;12.98;4.70;;;9.00;97.50;;;;;;6240028;23;20439;-66
2024/01/25 21:14:15;;;;;;;19.50;4.72;;;8.90;97.60;;;;;;6242541;23;20171;-68
2024/01/25 21:17:01;;;;;;;12.63;4.55;;;8.90;97.60;;;;;;6242369;23;20008;-67
2024/01/25 21:19:47;;;;;;;12.13;4.55;;;8.90;97.60;;;;;;6243314;23;20441;-67
2024/01/25 21:22:33;;;;;;;13.02;4.68;;;8.80;97.60;;;;;;6242032;23;20008;-67
2024/01/25 21:25:19;;;;;;;13.93;5.07;;;8.80;97.70;;;;;;6243583;23;20008;-67
2024/01/25 21:28:06;;;;;;;14.85;5.20;;;8.80;97.70;;;;;;6242700;23;20365;-68
2024/01/25 21:30:52;;;;;;;14.98;5.72;;;8.70;97.70;;;;;;6241684;23;20099;-68